createdAt,value
2017-08-09T00:00:15.694Z,100229.23
2017-08-09T00:01:21.540Z,100227.05
2017-08-09T00:02:27.569Z,100221.00
2017-08-09T00:03:33.441Z,100223.77
2017-08-09T00:04:39.459Z,100220.67
2017-08-09T00:05:45.477Z,100223.39
2017-08-09T00:06:51.494Z,100221.46
2017-08-09T00:07:57.505Z,100226.70
2017-08-09T00:09:03.026Z,100233.02
2017-08-09T00:10:09.172Z,100234.23
2017-08-09T00:11:15.191Z,100237.65
2017-08-09T00:12:24.010Z,100232.55
2017-08-09T00:13:32.067Z,100230.83
2017-08-09T00:14:38.114Z,100226.14
2017-08-09T00:15:44.129Z,100225.72
2017-08-09T00:16:50.153Z,100226.38
2017-08-09T00:17:56.176Z,100227.50
2017-08-09T00:19:02.199Z,100225.48
2017-08-09T00:20:08.265Z,100232.19
2017-08-09T00:21:14.282Z,100222.14
2017-08-09T00:22:24.234Z,100224.75
2017-08-09T00:23:30.287Z,100226.02
2017-08-09T00:24:36.305Z,100230.60
2017-08-09T00:25:42.365Z,100237.55
2017-08-09T00:26:48.390Z,100238.80
2017-08-09T00:27:54.407Z,100233.75
2017-08-09T00:29:00.438Z,100232.44
2017-08-09T00:30:06.467Z,100241.98
2017-08-09T00:31:12.556Z,100244.84
2017-08-09T00:32:18.587Z,100242.91
2017-08-09T00:33:24.627Z,100248.48
2017-08-09T00:34:30.650Z,100246.24
2017-08-09T00:35:37.578Z,100249.60
2017-08-09T00:36:43.645Z,100258.71
2017-08-09T00:37:49.658Z,100259.62
2017-08-09T00:38:55.671Z,100263.46
2017-08-09T00:40:01.702Z,100259.94
2017-08-09T00:41:07.721Z,100263.09
2017-08-09T00:42:13.806Z,100264.31
2017-08-09T00:43:19.828Z,100259.20
2017-08-09T00:44:25.850Z,100274.34
2017-08-09T00:45:31.882Z,100278.58
2017-08-09T00:46:37.910Z,100271.84
2017-08-09T00:47:43.979Z,100273.68
2017-08-09T00:48:49.990Z,100265.06
2017-08-09T00:49:56.005Z,100268.42
2017-08-09T00:51:02.015Z,100259.62
2017-08-09T00:52:08.062Z,100260.89
2017-08-09T00:53:14.119Z,100268.14
2017-08-09T00:54:20.133Z,100268.63
2017-08-09T00:55:26.171Z,100264.64
2017-08-09T00:56:32.191Z,100267.95
2017-08-09T00:57:38.215Z,100266.66
2017-08-09T00:58:44.285Z,100268.31
2017-08-09T01:00:54.855Z,100261.45
2017-08-09T01:02:00.870Z,100254.91
2017-08-09T01:03:06.891Z,100256.55
2017-08-09T01:04:12.738Z,100255.60
2017-08-09T01:05:18.758Z,100250.55
2017-08-09T01:06:24.782Z,100251.81
2017-08-09T01:07:30.806Z,100249.22
2017-08-09T01:08:36.833Z,100253.03
2017-08-09T01:09:42.898Z,100254.75
2017-08-09T01:10:48.914Z,100254.91
2017-08-09T01:11:54.936Z,100260.89
2017-08-09T01:13:00.959Z,100266.80
2017-08-09T01:14:06.968Z,100255.31
2017-08-09T01:15:12.857Z,100260.96
2017-08-09T01:16:18.885Z,100261.25
2017-08-09T01:17:24.917Z,100258.75
2017-08-09T01:18:30.942Z,100263.31
2017-08-09T01:19:36.594Z,100266.28
2017-08-09T01:20:42.463Z,100266.41
2017-08-09T01:21:48.486Z,100266.84
2017-08-09T01:22:54.529Z,100265.92
2017-08-09T01:24:00.582Z,100264.03
2017-08-09T01:25:06.591Z,100270.78
2017-08-09T01:26:12.634Z,100268.56
2017-08-09T01:27:18.657Z,100268.66
2017-08-09T01:28:24.686Z,100265.27
2017-08-09T01:29:30.711Z,100263.73
2017-08-09T01:30:36.393Z,100265.56
2017-08-09T01:31:42.454Z,100261.45
2017-08-09T01:32:48.478Z,100265.89
2017-08-09T01:33:54.154Z,100267.33
2017-08-09T01:35:00.194Z,100270.55
2017-08-09T01:36:06.217Z,100275.12
2017-08-09T01:37:12.295Z,100273.84
2017-08-09T01:38:21.106Z,100284.58
2017-08-09T01:39:27.126Z,100279.72
2017-08-09T01:40:33.146Z,100282.13
2017-08-09T01:41:39.158Z,100285.20
2017-08-09T01:42:45.223Z,100277.83
2017-08-09T01:43:51.257Z,100277.30
2017-08-09T01:44:57.290Z,100264.39
2017-08-09T01:46:03.324Z,100270.98
2017-08-09T01:47:09.005Z,100270.66
2017-08-09T01:48:14.767Z,100269.52
2017-08-09T01:49:20.801Z,100269.80
2017-08-09T01:50:26.829Z,100267.26
2017-08-09T01:51:32.480Z,100271.34
2017-08-09T01:52:38.143Z,100282.55
2017-08-09T01:53:44.182Z,100274.73
2017-08-09T01:54:50.186Z,100276.78
2017-08-09T01:55:56.221Z,100272.91
2017-08-09T01:57:02.246Z,100276.42
2017-08-09T01:58:08.329Z,100273.06
2017-08-09T01:59:14.362Z,100270.48
2017-08-09T02:00:19.677Z,100272.60
2017-08-09T02:01:24.778Z,100271.83
2017-08-09T02:02:30.640Z,100275.55
2017-08-09T02:03:36.481Z,100275.88
2017-08-09T02:04:42.550Z,100268.44
2017-08-09T02:05:48.568Z,100268.20
2017-08-09T02:06:54.600Z,100273.98
2017-08-09T02:08:00.633Z,100277.08
2017-08-09T02:09:06.282Z,100280.91
2017-08-09T02:10:13.252Z,100284.20
2017-08-09T02:11:19.155Z,100291.95
2017-08-09T02:12:25.168Z,100282.67
2017-08-09T02:13:31.190Z,100275.43
2017-08-09T02:14:37.210Z,100274.94
2017-08-09T02:15:43.255Z,100272.62
2017-08-09T02:16:49.282Z,100271.94
2017-08-09T02:17:55.108Z,100273.89
2017-08-09T02:19:01.125Z,100276.80
2017-08-09T02:20:07.143Z,100272.80
2017-08-09T02:21:13.206Z,100275.51
2017-08-09T02:22:19.303Z,100271.44
2017-08-09T02:23:25.346Z,100276.97
2017-08-09T02:24:31.367Z,100268.75
2017-08-09T02:25:37.394Z,100273.31
2017-08-09T02:26:43.455Z,100278.89
2017-08-09T02:27:49.475Z,100275.64
2017-08-09T02:28:55.479Z,100280.77
2017-08-09T02:30:01.498Z,100276.21
2017-08-09T02:31:07.517Z,100280.83
2017-08-09T02:32:13.557Z,100276.27
2017-08-09T02:33:19.655Z,100283.64
2017-08-09T02:34:25.667Z,100283.80
2017-08-09T02:35:31.689Z,100279.64
2017-08-09T02:36:37.733Z,100282.45
2017-08-09T02:37:43.795Z,100285.12
2017-08-09T02:38:49.826Z,100285.97
2017-08-09T02:39:55.834Z,100284.98
2017-08-09T02:41:01.842Z,100289.89
2017-08-09T02:42:07.863Z,100286.33
2017-08-09T02:43:13.934Z,100287.95
2017-08-09T02:44:20.039Z,100293.61
2017-08-09T02:45:26.056Z,100290.53
2017-08-09T02:46:32.071Z,100290.82
2017-08-09T02:47:38.083Z,100286.53
2017-08-09T02:48:44.133Z,100285.05
2017-08-09T02:49:50.150Z,100283.66
2017-08-09T02:50:56.190Z,100281.33
2017-08-09T02:52:02.213Z,100290.95
2017-08-09T02:53:08.241Z,100286.05
2017-08-09T02:54:14.298Z,100288.22
2017-08-09T02:55:20.330Z,100290.40
2017-08-09T02:56:26.355Z,100285.75
2017-08-09T02:57:32.380Z,100293.35
2017-08-09T02:58:38.411Z,100291.59
2017-08-09T02:59:44.457Z,100297.00
2017-08-09T03:00:50.474Z,100297.22
2017-08-09T03:01:56.503Z,100290.23
2017-08-09T03:03:02.503Z,100300.29
2017-08-09T03:04:08.566Z,100300.83
2017-08-09T03:05:14.621Z,100300.94
2017-08-09T03:06:20.663Z,100306.11
2017-08-09T03:07:26.689Z,100308.36
2017-08-09T03:08:32.714Z,100307.16
2017-08-09T03:09:38.746Z,100299.52
2017-08-09T03:10:44.816Z,100302.08
2017-08-09T03:11:50.847Z,100303.88
2017-08-09T03:12:56.866Z,100304.42
2017-08-09T03:14:02.888Z,100307.87
2017-08-09T03:15:08.910Z,100304.39
2017-08-09T03:16:14.979Z,100296.51
2017-08-09T03:17:21.007Z,100300.75
2017-08-09T03:18:27.030Z,100304.66
2017-08-09T03:19:33.061Z,100297.17
2017-08-09T03:20:38.726Z,100299.32
2017-08-09T03:21:44.782Z,100302.05
2017-08-09T03:22:50.806Z,100305.98
2017-08-09T03:23:56.869Z,100310.59
2017-08-09T03:25:02.885Z,100309.74
2017-08-09T03:26:08.918Z,100309.23
2017-08-09T03:27:14.962Z,100307.20
2017-08-09T03:28:20.989Z,100306.77
2017-08-09T03:29:27.013Z,100306.98
2017-08-09T03:30:33.045Z,100310.88
2017-08-09T03:31:39.066Z,100315.25
2017-08-09T03:32:45.122Z,100316.58
2017-08-09T03:33:51.149Z,100324.85
2017-08-09T03:34:57.167Z,100324.30
2017-08-09T03:36:03.190Z,100327.22
2017-08-09T03:37:09.274Z,100324.70
2017-08-09T03:38:15.336Z,100319.81
2017-08-09T03:39:21.362Z,100327.63
2017-08-09T03:40:27.481Z,100324.28
2017-08-09T03:41:33.502Z,100327.12
2017-08-09T03:42:39.546Z,100334.14
2017-08-09T03:43:45.621Z,100340.62
2017-08-09T03:44:51.642Z,100339.06
2017-08-09T03:45:57.683Z,100338.64
2017-08-09T03:47:03.769Z,100346.42
2017-08-09T03:48:09.796Z,100348.70
2017-08-09T03:49:15.853Z,100349.55
2017-08-09T03:50:21.874Z,100344.80
2017-08-09T03:51:27.908Z,100345.55
2017-08-09T03:52:33.936Z,100347.52
2017-08-09T03:53:39.968Z,100348.86
2017-08-09T03:54:46.043Z,100350.69
2017-08-09T03:55:52.055Z,100348.81
2017-08-09T03:56:58.089Z,100347.28
2017-08-09T03:58:04.251Z,100354.62
2017-08-09T03:59:10.082Z,100347.69
2017-08-09T04:00:16.163Z,100348.40
2017-08-09T04:01:21.981Z,100353.61
2017-08-09T04:02:28.000Z,100354.09
2017-08-09T04:03:34.035Z,100354.26
2017-08-09T04:04:40.074Z,100361.72
2017-08-09T04:05:46.139Z,100366.14
2017-08-09T04:06:52.160Z,100363.27
2017-08-09T04:07:58.186Z,100365.63
2017-08-09T04:09:03.605Z,100371.84
2017-08-09T04:10:09.724Z,100367.74
2017-08-09T04:11:15.798Z,100363.80
2017-08-09T04:12:21.821Z,100359.06
2017-08-09T04:13:27.838Z,100365.61
2017-08-09T04:14:33.854Z,100368.33
2017-08-09T04:15:39.878Z,100373.72
2017-08-09T04:16:45.929Z,100376.01
2017-08-09T04:17:51.961Z,100372.28
2017-08-09T04:18:58.047Z,100382.45
2017-08-09T04:20:04.070Z,100383.73
2017-08-09T04:21:10.094Z,100384.05
2017-08-09T04:22:16.156Z,100381.33
2017-08-09T04:23:22.194Z,100373.91
2017-08-09T04:24:28.249Z,100373.69
2017-08-09T04:25:34.266Z,100377.20
2017-08-09T04:26:40.302Z,100378.81
2017-08-09T04:27:46.358Z,100388.97
2017-08-09T04:28:52.374Z,100387.47
2017-08-09T04:29:58.749Z,100383.84
2017-08-09T04:31:04.855Z,100383.22
2017-08-09T04:32:10.889Z,100383.13
2017-08-09T04:33:16.947Z,100389.22
2017-08-09T04:34:22.987Z,100397.95
2017-08-09T04:35:29.012Z,100396.84
2017-08-09T04:36:35.038Z,100398.72
2017-08-09T04:37:41.062Z,100399.81
2017-08-09T04:38:47.134Z,100406.95
2017-08-09T04:39:53.158Z,100409.45
2017-08-09T04:40:59.174Z,100407.27
2017-08-09T04:42:05.281Z,100400.70
2017-08-09T04:43:11.467Z,100399.45
2017-08-09T04:44:17.557Z,100390.97
2017-08-09T04:45:23.638Z,100389.81
2017-08-09T04:46:30.621Z,100388.20
2017-08-09T04:47:39.726Z,100398.57
2017-08-09T04:48:48.022Z,100398.45
2017-08-09T04:49:55.952Z,100402.64
2017-08-09T04:51:03.573Z,100392.20
2017-08-09T04:52:10.332Z,100389.97
2017-08-09T04:53:16.478Z,100385.05
2017-08-09T04:54:22.498Z,100383.54
2017-08-09T04:55:28.561Z,100388.33
2017-08-09T04:56:34.574Z,100385.60
2017-08-09T04:57:40.608Z,100382.36
2017-08-09T04:58:46.630Z,100387.27
2017-08-09T04:59:52.655Z,100388.81
2017-08-09T05:00:58.718Z,100383.75
2017-08-09T05:02:04.742Z,100388.76
2017-08-09T05:03:10.806Z,100389.16
2017-08-09T05:04:16.853Z,100391.09
2017-08-09T05:05:22.960Z,100399.47
2017-08-09T05:06:29.002Z,100392.33
2017-08-09T05:07:35.020Z,100404.86
2017-08-09T05:08:41.049Z,100398.82
2017-08-09T05:09:47.081Z,100406.62
2017-08-09T05:10:53.107Z,100406.00
2017-08-09T05:11:59.168Z,100408.34
2017-08-09T05:13:05.195Z,100415.22
2017-08-09T05:14:11.225Z,100414.44
2017-08-09T05:15:17.246Z,100417.33
2017-08-09T05:16:23.142Z,100415.59
2017-08-09T05:17:29.198Z,100423.45
2017-08-09T05:18:35.222Z,100426.69
2017-08-09T05:19:41.250Z,100427.28
2017-08-09T05:20:47.282Z,100419.91
2017-08-09T05:21:53.315Z,100425.92
2017-08-09T05:22:59.374Z,100422.84
2017-08-09T05:24:05.438Z,100424.32
2017-08-09T05:25:11.486Z,100432.35
2017-08-09T05:26:17.513Z,100431.77
2017-08-09T05:27:23.545Z,100431.55
2017-08-09T05:28:29.603Z,100436.41
2017-08-09T05:29:35.631Z,100435.52
2017-08-09T05:30:41.666Z,100439.39
2017-08-09T05:31:47.713Z,100441.16
2017-08-09T05:32:53.733Z,100436.11
2017-08-09T05:33:59.810Z,100433.65
2017-08-09T05:35:06.597Z,100431.74
2017-08-09T05:36:13.634Z,100430.21
2017-08-09T05:37:19.662Z,100443.16
2017-08-09T05:38:25.694Z,100433.65
2017-08-09T05:39:31.754Z,100437.98
2017-08-09T05:40:37.779Z,100430.30
2017-08-09T05:41:43.797Z,100430.88
2017-08-09T05:42:49.826Z,100430.92
2017-08-09T05:43:55.850Z,100436.16
2017-08-09T05:45:01.915Z,100439.38
2017-08-09T05:46:07.939Z,100435.38
2017-08-09T05:47:13.973Z,100431.58
2017-08-09T05:48:20.018Z,100431.59
2017-08-09T05:49:26.030Z,100439.80
2017-08-09T05:50:31.724Z,100439.19
2017-08-09T05:51:37.746Z,100445.77
2017-08-09T05:52:43.762Z,100449.59
2017-08-09T05:53:49.802Z,100453.41
2017-08-09T05:54:55.842Z,100446.93
2017-08-09T05:56:01.913Z,100448.41
2017-08-09T05:57:07.932Z,100449.76
2017-08-09T05:58:13.942Z,100444.41
2017-08-09T05:59:19.997Z,100448.75
2017-08-09T06:00:26.010Z,100455.25
2017-08-09T06:01:32.092Z,100451.23
2017-08-09T06:02:40.072Z,100453.97
2017-08-09T06:03:46.090Z,100452.21
2017-08-09T06:04:52.113Z,100461.52
2017-08-09T06:05:58.134Z,100449.66
2017-08-09T06:07:04.199Z,100453.97
2017-08-09T06:08:10.234Z,100457.50
2017-08-09T06:09:16.062Z,100461.77
2017-08-09T06:10:22.167Z,100457.24
2017-08-09T06:11:28.217Z,100461.56
2017-08-09T06:12:34.967Z,100460.73
2017-08-09T06:13:40.992Z,100457.98
2017-08-09T06:14:47.026Z,100466.44
2017-08-09T06:15:53.074Z,100457.29
2017-08-09T06:16:59.098Z,100464.17
2017-08-09T06:18:05.152Z,100469.52
2017-08-09T06:19:11.167Z,100469.59
2017-08-09T06:20:17.029Z,100482.62
2017-08-09T06:21:23.135Z,100482.33
2017-08-09T06:22:29.154Z,100481.72
2017-08-09T06:23:35.206Z,100486.75
2017-08-09T06:24:41.276Z,100484.80
2017-08-09T06:25:47.294Z,100486.47
2017-08-09T06:26:53.134Z,100484.44
2017-08-09T06:27:59.153Z,100485.86
2017-08-09T06:29:05.228Z,100475.23
2017-08-09T06:30:11.255Z,100472.56
2017-08-09T06:31:17.290Z,100471.65
2017-08-09T06:32:23.313Z,100465.15
2017-08-09T06:33:29.354Z,100465.22
2017-08-09T06:34:35.405Z,100468.88
2017-08-09T06:35:41.417Z,100479.12
2017-08-09T06:36:47.448Z,100481.06
2017-08-09T06:37:53.467Z,100484.57
2017-08-09T06:38:59.490Z,100483.67
2017-08-09T06:40:05.566Z,100481.91
2017-08-09T06:41:11.582Z,100485.63
2017-08-09T06:42:17.608Z,100484.92
2017-08-09T06:43:23.634Z,100482.66
2017-08-09T06:44:29.648Z,100486.70
2017-08-09T06:45:35.738Z,100482.95
2017-08-09T06:46:41.767Z,100485.33
2017-08-09T06:47:47.777Z,100485.58
2017-08-09T06:48:53.790Z,100482.30
2017-08-09T06:49:59.826Z,100493.89
2017-08-09T06:51:05.718Z,100489.11
2017-08-09T06:52:11.732Z,100491.45
2017-08-09T06:53:17.802Z,100499.66
2017-08-09T06:54:23.834Z,100496.37
2017-08-09T06:55:29.855Z,100506.92
2017-08-09T06:56:35.909Z,100512.12
2017-08-09T06:57:41.949Z,100509.09
2017-08-09T06:58:47.989Z,100507.32
2017-08-09T06:59:54.023Z,100508.69
2017-08-09T07:01:00.044Z,100509.86
2017-08-09T07:02:06.126Z,100505.63
2017-08-09T07:03:12.188Z,100500.92
2017-08-09T07:04:18.214Z,100505.64
2017-08-09T07:05:24.249Z,100505.12
2017-08-09T07:06:30.267Z,100506.95
2017-08-09T07:07:36.315Z,100507.28
2017-08-09T07:08:42.340Z,100509.14
2017-08-09T07:09:48.367Z,100505.13
2017-08-09T07:10:54.398Z,100508.72
2017-08-09T07:12:00.418Z,100508.69
2017-08-09T07:13:06.486Z,100512.86
2017-08-09T07:14:12.516Z,100507.73
2017-08-09T07:15:18.564Z,100511.33
2017-08-09T07:16:24.387Z,100508.52
2017-08-09T07:17:30.413Z,100508.52
2017-08-09T07:18:36.482Z,100512.41
2017-08-09T07:19:42.509Z,100514.95
2017-08-09T07:20:48.534Z,100515.08
2017-08-09T07:21:54.558Z,100514.41
2017-08-09T07:23:00.577Z,100521.55
2017-08-09T07:24:06.641Z,100507.59
2017-08-09T07:25:12.676Z,100512.12
2017-08-09T07:26:18.697Z,100513.45
2017-08-09T07:27:24.714Z,100513.45
2017-08-09T07:28:30.746Z,100516.33
2017-08-09T07:29:36.804Z,100516.62
2017-08-09T07:30:42.836Z,100517.34
2017-08-09T07:33:30.716Z,100514.62
2017-08-09T07:34:36.793Z,100518.45
2017-08-09T07:36:59.784Z,100526.56
2017-08-09T07:38:05.840Z,100519.74
2017-08-09T07:39:11.885Z,100527.27
2017-08-09T07:40:17.968Z,100529.34
2017-08-09T07:41:24.001Z,100533.66
2017-08-09T07:42:30.041Z,100533.40
2017-08-09T07:43:36.080Z,100534.31
2017-08-09T07:44:42.107Z,100538.60
2017-08-09T07:45:48.173Z,100543.64
2017-08-09T07:46:54.200Z,100542.18
2017-08-09T07:48:00.243Z,100545.94
2017-08-09T07:49:06.272Z,100542.90
2017-08-09T07:50:12.326Z,100546.84
2017-08-09T07:51:18.400Z,100546.77
2017-08-09T07:52:24.443Z,100549.26
2017-08-09T07:53:30.494Z,100543.89
2017-08-09T07:54:36.540Z,100547.73
2017-08-09T07:55:42.585Z,100549.80
2017-08-09T07:56:48.677Z,100551.35
2017-08-09T07:57:54.720Z,100548.83
2017-08-09T07:59:00.762Z,100551.33
2017-08-09T08:00:07.235Z,100552.25
2017-08-09T08:01:13.075Z,100549.33
2017-08-09T08:02:19.173Z,100549.00
2017-08-09T08:03:25.223Z,100548.24
2017-08-09T08:04:31.248Z,100550.50
2017-08-09T08:05:37.318Z,100544.63
2017-08-09T08:06:43.368Z,100548.63
2017-08-09T08:07:49.452Z,100538.06
2017-08-09T08:08:55.489Z,100539.85
2017-08-09T08:10:01.337Z,100540.98
2017-08-09T08:11:07.423Z,100540.79
2017-08-09T08:12:13.483Z,100539.16
2017-08-09T08:13:19.560Z,100545.17
2017-08-09T08:14:25.616Z,100549.09
2017-08-09T08:15:31.649Z,100550.83
2017-08-09T08:16:37.708Z,100556.20
2017-08-09T08:17:43.756Z,100554.02
2017-08-09T08:18:49.852Z,100556.73
2017-08-09T08:19:55.915Z,100555.67
2017-08-09T08:21:01.982Z,100557.58
2017-08-09T08:22:08.038Z,100561.58
2017-08-09T08:23:14.078Z,100558.78
2017-08-09T08:24:20.167Z,100561.69
2017-08-09T08:25:26.254Z,100559.06
2017-08-09T08:26:32.282Z,100557.83
2017-08-09T08:27:38.321Z,100559.92
2017-08-09T08:28:44.350Z,100557.66
2017-08-09T08:29:50.442Z,100562.42
2017-08-09T08:30:56.481Z,100556.84
2017-08-09T08:32:02.541Z,100549.34
2017-08-09T08:33:08.588Z,100556.77
2017-08-09T08:34:14.627Z,100560.38
2017-08-09T08:35:20.737Z,100562.66
2017-08-09T08:36:26.768Z,100563.91
2017-08-09T08:37:32.813Z,100562.77
2017-08-09T08:38:38.868Z,100562.41
2017-08-09T08:39:44.918Z,100560.27
2017-08-09T08:40:51.006Z,100566.86
2017-08-09T08:41:57.054Z,100565.97
2017-08-09T08:43:03.120Z,100565.80
2017-08-09T08:44:09.185Z,100566.69
2017-08-09T08:45:15.229Z,100571.28
2017-08-09T08:46:21.425Z,100559.80
2017-08-09T08:47:27.480Z,100565.16
2017-08-09T08:48:33.507Z,100559.77
2017-08-09T08:49:39.569Z,100559.95
2017-08-09T08:50:45.629Z,100556.94
2017-08-09T08:51:51.731Z,100557.55
2017-08-09T08:52:57.789Z,100562.11
2017-08-09T08:54:03.835Z,100569.64
2017-08-09T08:55:10.056Z,100567.94
2017-08-09T08:56:16.091Z,100567.48
2017-08-09T08:57:22.268Z,100572.77
2017-08-09T08:58:28.338Z,100570.83
2017-08-09T08:59:34.401Z,100568.11
2017-08-09T09:00:40.105Z,100569.95
2017-08-09T09:01:46.188Z,100562.21
2017-08-09T09:02:52.287Z,100563.92
2017-08-09T09:03:58.344Z,100564.69
2017-08-09T09:05:04.385Z,100570.13
2017-08-09T09:06:10.457Z,100564.00
2017-08-09T09:07:16.525Z,100556.94
2017-08-09T09:08:22.752Z,100554.88
2017-08-09T09:09:28.794Z,100556.06
2017-08-09T09:10:34.872Z,100558.13
2017-08-09T09:11:40.922Z,100557.53
2017-08-09T09:12:46.987Z,100559.55
2017-08-09T09:13:53.085Z,100551.34
2017-08-09T09:14:59.145Z,100556.11
2017-08-09T09:16:05.253Z,100554.75
2017-08-09T09:17:11.323Z,100551.03
2017-08-09T09:18:17.416Z,100555.91
2017-08-09T09:19:23.581Z,100557.66
2017-08-09T09:20:29.642Z,100560.64
2017-08-09T09:21:35.720Z,100560.89
2017-08-09T09:22:41.770Z,100568.41
2017-08-09T09:23:47.828Z,100572.77
2017-08-09T09:24:53.913Z,100564.37
2017-08-09T09:25:59.989Z,100562.83
2017-08-09T09:27:06.130Z,100551.00
2017-08-09T09:28:12.178Z,100556.55
2017-08-09T09:29:18.230Z,100568.93
2017-08-09T09:30:24.373Z,100560.16
2017-08-09T09:31:30.425Z,100569.49
2017-08-09T09:32:36.464Z,100568.22
2017-08-09T09:33:42.511Z,100566.67
2017-08-09T09:34:48.546Z,100567.72
2017-08-09T09:35:54.626Z,100568.83
2017-08-09T09:37:00.692Z,100567.55
2017-08-09T09:38:06.756Z,100572.70
2017-08-09T09:39:12.813Z,100561.28
2017-08-09T09:40:18.883Z,100563.47
2017-08-09T09:41:24.977Z,100566.45
2017-08-09T09:42:31.045Z,100563.69
2017-08-09T09:43:37.095Z,100566.56
2017-08-09T09:44:43.177Z,100573.19
2017-08-09T09:45:49.247Z,100568.07
2017-08-09T09:46:55.344Z,100568.19
2017-08-09T09:48:01.401Z,100569.99
2017-08-09T09:49:07.479Z,100564.91
2017-08-09T09:50:13.501Z,100569.91
2017-08-09T09:51:19.575Z,100571.51
2017-08-09T09:52:25.648Z,100561.94
2017-08-09T09:53:31.705Z,100565.46
2017-08-09T09:54:37.755Z,100571.38
2017-08-09T09:55:43.511Z,100564.83
2017-08-09T09:56:49.553Z,100565.27
2017-08-09T09:57:55.657Z,100569.20
2017-08-09T09:59:01.710Z,100572.59
2017-08-09T10:00:07.763Z,100563.14
2017-08-09T10:01:13.521Z,100569.03
2017-08-09T10:02:19.408Z,100569.83
2017-08-09T10:03:25.552Z,100570.61
2017-08-09T10:04:31.619Z,100571.55
2017-08-09T10:05:37.658Z,100566.53
2017-08-09T10:06:43.468Z,100575.64
2017-08-09T10:07:50.172Z,100571.45
2017-08-09T10:08:56.287Z,100564.79
2017-08-09T10:10:02.089Z,100563.97
2017-08-09T10:11:07.865Z,100562.36
2017-08-09T10:12:13.951Z,100560.83
2017-08-09T10:13:19.718Z,100565.88
2017-08-09T10:14:25.791Z,100560.50
2017-08-09T10:15:31.822Z,100562.95
2017-08-09T10:16:37.852Z,100560.35
2017-08-09T10:17:43.915Z,100559.85
2017-08-09T10:18:49.952Z,100563.98
2017-08-09T10:19:55.845Z,100557.72
2017-08-09T10:21:01.881Z,100556.80
2017-08-09T10:22:07.937Z,100559.15
2017-08-09T10:23:14.016Z,100571.36
2017-08-09T10:24:19.791Z,100569.09
2017-08-09T10:25:25.865Z,100565.81
2017-08-09T10:26:31.921Z,100563.94
2017-08-09T10:27:37.665Z,100566.56
2017-08-09T10:28:43.733Z,100567.64
2017-08-09T10:29:49.790Z,100560.59
2017-08-09T10:30:55.873Z,100566.06
2017-08-09T10:32:01.926Z,100569.00
2017-08-09T10:33:07.970Z,100567.41
2017-08-09T10:34:13.745Z,100574.07
2017-08-09T10:35:19.794Z,100572.14
2017-08-09T10:36:25.903Z,100575.34
2017-08-09T10:37:31.951Z,100575.50
2017-08-09T10:38:38.009Z,100569.68
2017-08-09T10:39:43.745Z,100568.91
2017-08-09T10:40:49.803Z,100566.80
2017-08-09T10:41:55.630Z,100569.02
2017-08-09T10:43:01.690Z,100569.83
2017-08-09T10:44:07.729Z,100577.95
2017-08-09T10:45:13.525Z,100573.56
2017-08-09T10:46:19.581Z,100578.03
2017-08-09T10:47:25.351Z,100572.37
2017-08-09T10:48:31.395Z,100571.45
2017-08-09T10:49:37.432Z,100572.88
2017-08-09T10:50:43.504Z,100571.14
2017-08-09T10:51:49.546Z,100575.23
2017-08-09T10:52:55.321Z,100575.42
2017-08-09T10:54:01.094Z,100568.18
2017-08-09T10:55:06.897Z,100564.79
2017-08-09T10:56:12.969Z,100572.53
2017-08-09T10:57:18.782Z,100572.65
2017-08-09T10:58:24.753Z,100576.58
2017-08-09T10:59:30.537Z,100570.77
2017-08-09T11:00:36.635Z,100573.88
2017-08-09T11:01:42.444Z,100568.75
2017-08-09T11:02:48.205Z,100567.56
2017-08-09T11:03:54.024Z,100570.53
2017-08-09T11:05:00.082Z,100562.09
2017-08-09T11:06:06.170Z,100564.52
2017-08-09T11:07:12.230Z,100561.55
2017-08-09T11:08:18.053Z,100568.87
2017-08-09T11:09:23.986Z,100562.98
2017-08-09T11:10:29.797Z,100554.11
2017-08-09T11:11:35.855Z,100557.00
2017-08-09T11:12:41.629Z,100559.70
2017-08-09T11:13:47.406Z,100559.13
2017-08-09T11:14:53.204Z,100559.55
2017-08-09T11:15:59.000Z,100556.08
2017-08-09T11:17:04.774Z,100558.42
2017-08-09T11:18:10.574Z,100560.43
2017-08-09T11:19:16.631Z,100555.72
2017-08-09T11:20:22.456Z,100561.44
2017-08-09T11:21:28.232Z,100562.55
2017-08-09T11:22:34.312Z,100555.03
2017-08-09T11:23:40.401Z,100560.00
2017-08-09T11:24:51.597Z,100563.03
2017-08-09T11:25:57.700Z,100560.91
2017-08-09T11:27:03.498Z,100569.06
2017-08-09T11:28:09.236Z,100558.97
2017-08-09T11:29:15.334Z,100564.30
2017-08-09T11:30:21.154Z,100559.67
2017-08-09T11:31:27.312Z,100554.95
2017-08-09T11:32:33.083Z,100561.59
2017-08-09T11:33:38.850Z,100559.41
2017-08-09T11:34:44.658Z,100561.09
2017-08-09T11:35:50.449Z,100563.59
2017-08-09T11:36:56.241Z,100561.40
2017-08-09T11:38:02.073Z,100560.89
2017-08-09T11:39:07.857Z,100565.29
2017-08-09T11:40:13.923Z,100556.09
2017-08-09T11:41:19.681Z,100561.39
2017-08-09T11:42:25.537Z,100555.09
2017-08-09T11:43:31.781Z,100558.55
2017-08-09T11:44:37.626Z,100559.84
2017-08-09T11:45:43.423Z,100552.31
2017-08-09T11:46:48.860Z,100546.78
2017-08-09T11:47:55.000Z,100551.77
2017-08-09T11:49:00.796Z,100554.55
2017-08-09T11:50:06.569Z,100547.23
2017-08-09T11:51:12.333Z,100554.48
2017-08-09T11:52:18.156Z,100542.62
2017-08-09T11:53:24.047Z,100549.53
2017-08-09T11:54:29.469Z,100548.98
2017-08-09T11:55:35.272Z,100535.20
2017-08-09T11:56:41.083Z,100549.02
2017-08-09T11:57:46.838Z,100546.16
2017-08-09T11:58:52.638Z,100547.52
2017-08-09T11:59:58.424Z,100537.41
2017-08-09T12:01:04.191Z,100542.16
2017-08-09T12:02:10.196Z,100539.39
2017-08-09T12:03:15.978Z,100547.78
2017-08-09T12:04:21.762Z,100539.58
2017-08-09T12:05:27.542Z,100540.83
2017-08-09T12:06:33.319Z,100541.54
2017-08-09T12:07:39.079Z,100531.30
2017-08-09T12:08:44.838Z,100537.00
2017-08-09T12:09:50.643Z,100531.95
2017-08-09T12:10:56.378Z,100526.83
2017-08-09T12:12:02.133Z,100527.27
2017-08-09T12:13:07.933Z,100518.91
2017-08-09T12:14:13.693Z,100517.14
2017-08-09T12:15:19.473Z,100517.56
2017-08-09T12:16:25.236Z,100513.30
2017-08-09T12:17:31.008Z,100517.49
2017-08-09T12:18:36.755Z,100514.27
2017-08-09T12:19:42.823Z,100517.59
2017-08-09T12:20:48.606Z,100513.95
2017-08-09T12:21:54.361Z,100508.20
2017-08-09T12:23:00.110Z,100509.88
2017-08-09T12:24:05.878Z,100508.95
2017-08-09T12:25:11.624Z,100507.31
2017-08-09T12:26:17.520Z,100510.50
2017-08-09T12:27:23.404Z,100513.95
2017-08-09T12:28:29.157Z,100508.98
2017-08-09T12:29:34.917Z,100506.19
2017-08-09T12:30:40.701Z,100508.78
2017-08-09T12:31:46.482Z,100515.25
2017-08-09T12:32:52.224Z,100509.29
2017-08-09T12:33:57.965Z,100507.69
2017-08-09T12:35:03.715Z,100504.68
2017-08-09T12:36:09.482Z,100517.25
2017-08-09T12:37:15.281Z,100514.55